Airfield :
LOGIN :

Register | Disclaimer

   EN    FR    IT 

 










Legend :    VFR   Marginal VFR   IFR   Intensive IFR   Very Intensive IFR
Visi :
Ceiling :
>= 8 km
>= 3000ft
5 to 8 km
1000 to 3000 ft
1500m to 5 km
500 to 1000 ft
800 to 1500m
200 to 500 ft
< 800m
< 200 ft
Symbols :   Thunderstorms  Fog  Heavy snow  Heavy precipitations  Wind > 20 kt
SIGMETs :     Misc.  Thunderstorms  Icing  Turbulence  Mountain Waves  Volcanic Ashes







- Airport Elevation : 465 ft
- IATA code : LEJ


EDDP - Leipzig Halle

CURRENT METAR :
  • 211120Z 07011KT 4500 -DZ BR BKN008 01/00 Q1019 NOSIG

EXPIRED METARs :
  • 211050Z 07012KT 4500 BR BKN008 01/M00 Q1019 NOSIG
  • 211020Z 07013KT 4500 -DZ BR BKN008 01/M00 Q1019 NOSIG
  • 210950Z 07011KT 4500 BR BKN008 01/M00 Q1019 NOSIG
  • 210920Z 07012KT 4500 BR BKN007 01/M00 Q1019 NOSIG
  • 210850Z 07010KT 4000 BR BKN007 01/M00 Q1019 NOSIG

TAF TAF EDDP
Valid from the 21 at 12:00 until the 22 at 12:00 UTC


211100Z 2112/2212 07010KT 4000 -DZ BR BKN008
PROB30
TEMPO 2112/2118 6000 BKN011
BECMG 2209/2212 6000 BKN012
No reported NOTAMs for that airfield.



MET'MAP, your aeronautical weather chart ! - Copyright ORBIFLY December 2007 - Disclaimer

ORBIFLY MET'MAP TEAM :

Programming & Development : Alexandra Zaïnal
Concept & Development : Baudouin d'Aumeries
Co-Development & Prog : Marc-Olivier Méhu
Technical & hardware support : Manuel Goepfert

Contact : metmap@orbifly.com




SOURCES & CREDITS :

   NOAA